createdAt,value
2023-05-06T00:02:47.124Z,2.98
2023-05-06T00:07:49.800Z,2.95
2023-05-06T00:12:52.531Z,2.89
2023-05-06T00:17:55.614Z,2.83
2023-05-06T00:22:59.340Z,2.77
2023-05-06T00:28:01.830Z,2.72
2023-05-06T00:33:04.415Z,2.69
2023-05-06T00:38:10.228Z,2.62
2023-05-06T00:43:12.840Z,2.55
2023-05-06T00:48:16.341Z,2.51
2023-05-06T00:53:21.656Z,2.47
2023-05-06T00:58:24.181Z,2.44
2023-05-06T01:03:26.872Z,2.43
2023-05-06T01:08:37.464Z,2.43
2023-05-06T01:13:48.486Z,2.39
2023-05-06T01:18:54.730Z,2.36
2023-05-06T01:23:58.488Z,2.36
2023-05-06T01:29:02.321Z,2.34
2023-05-06T01:34:14.181Z,2.30
2023-05-06T01:39:20.613Z,2.23
2023-05-06T01:44:24.034Z,2.18
2023-05-06T01:49:27.848Z,2.14
2023-05-06T01:54:30.546Z,2.08
2023-05-06T01:59:33.065Z,2.04
2023-05-06T02:04:35.899Z,2.02
2023-05-06T02:09:38.697Z,1.97
2023-05-06T02:14:41.283Z,1.94
2023-05-06T02:19:43.811Z,1.88
2023-05-06T02:24:46.431Z,1.83
2023-05-06T02:29:48.998Z,1.76
2023-05-06T02:34:53.135Z,1.73
2023-05-06T02:39:55.662Z,1.72
2023-05-06T02:44:58.750Z,1.71
2023-05-06T02:50:01.341Z,1.70
2023-05-06T02:55:06.347Z,1.73
2023-05-06T03:00:10.927Z,1.77
2023-05-06T03:05:13.514Z,1.81
2023-05-06T03:10:16.218Z,1.87
2023-05-06T03:15:18.888Z,1.94
2023-05-06T03:20:21.502Z,2.07
2023-05-06T03:25:24.230Z,2.20
2023-05-06T03:30:26.877Z,2.36
2023-05-06T03:35:29.507Z,2.52
2023-05-06T03:40:32.809Z,2.68
2023-05-06T03:45:35.926Z,2.85
2023-05-06T03:50:38.622Z,3.05
2023-05-06T03:55:41.900Z,3.28
2023-05-06T04:00:44.549Z,3.53
2023-05-06T04:05:48.997Z,3.81
2023-05-06T04:10:52.086Z,4.07
2023-05-06T04:15:54.717Z,4.37
2023-05-06T04:20:57.316Z,4.61
2023-05-06T04:25:59.967Z,4.75
2023-05-06T04:31:02.596Z,4.91
2023-05-06T04:36:06.583Z,5.07
2023-05-06T04:41:09.458Z,5.23
2023-05-06T04:46:12.111Z,5.40
2023-05-06T04:51:15.129Z,5.54
2023-05-06T04:56:17.620Z,5.62
2023-05-06T05:01:20.928Z,5.66
2023-05-06T05:06:23.590Z,5.74
2023-05-06T05:11:26.367Z,5.87
2023-05-06T05:16:28.999Z,6.01
2023-05-06T05:21:31.686Z,6.20
2023-05-06T05:26:34.281Z,6.46
2023-05-06T05:31:36.989Z,6.65
2023-05-06T05:36:39.585Z,6.82
2023-05-06T05:41:42.134Z,7.11
2023-05-06T05:46:44.717Z,7.35
2023-05-06T05:51:47.615Z,7.38
2023-05-06T05:56:50.583Z,7.42
2023-05-06T06:01:53.123Z,7.47
2023-05-06T06:06:57.959Z,7.64
2023-05-06T06:12:04.485Z,7.92
2023-05-06T06:17:11.452Z,8.19
2023-05-06T06:22:14.009Z,8.51
2023-05-06T06:27:16.512Z,8.87
2023-05-06T06:32:19.601Z,9.11
2023-05-06T06:37:22.223Z,9.38
2023-05-06T06:42:24.760Z,9.67
2023-05-06T06:47:27.419Z,9.91
2023-05-06T06:52:30.115Z,10.17
2023-05-06T06:57:32.657Z,10.30
2023-05-06T07:02:35.299Z,10.39
2023-05-06T07:07:38.070Z,10.35
2023-05-06T07:12:40.619Z,10.51
2023-05-06T07:17:43.663Z,10.63
2023-05-06T07:22:46.244Z,10.81
2023-05-06T07:27:48.820Z,11.15
2023-05-06T07:32:51.514Z,11.47
2023-05-06T07:37:54.220Z,11.71
2023-05-06T07:42:57.185Z,11.95
2023-05-06T07:47:59.971Z,12.22
2023-05-06T07:53:02.534Z,12.49
2023-05-06T07:58:05.120Z,12.65
2023-05-06T08:03:08.168Z,12.70
2023-05-06T08:08:10.907Z,12.68
2023-05-06T08:13:13.623Z,12.90
2023-05-06T08:18:22.286Z,13.31
2023-05-06T08:23:25.821Z,13.66
2023-05-06T08:28:29.266Z,13.90
2023-05-06T08:33:31.849Z,14.08
2023-05-06T08:38:34.380Z,14.14
2023-05-06T08:43:48.041Z,14.13
2023-05-06T08:48:50.946Z,14.00
2023-05-06T08:53:54.762Z,14.12
2023-05-06T08:58:58.500Z,14.30
2023-05-06T09:04:01.329Z,14.60
2023-05-06T09:09:04.027Z,14.79
2023-05-06T09:14:17.691Z,14.95
2023-05-06T09:19:22.338Z,15.30
2023-05-06T09:24:25.551Z,15.34
2023-05-06T09:29:28.066Z,15.42
2023-05-06T09:34:30.620Z,15.38
2023-05-06T09:39:33.258Z,15.40
2023-05-06T09:44:35.885Z,15.61
2023-05-06T09:49:40.503Z,15.85
2023-05-06T09:54:46.836Z,16.03
2023-05-06T09:59:52.189Z,16.12
2023-05-06T10:04:57.217Z,16.00
2023-05-06T10:10:00.302Z,16.06
2023-05-06T10:15:04.425Z,16.32
2023-05-06T10:20:09.844Z,16.60
2023-05-06T10:25:22.457Z,16.78
2023-05-06T10:30:26.632Z,16.82
2023-05-06T10:35:47.236Z,16.77
2023-05-06T10:40:50.558Z,16.71
2023-05-06T10:46:04.731Z,16.74
2023-05-06T10:51:16.496Z,16.85
2023-05-06T10:56:19.080Z,16.94
2023-05-06T11:01:25.951Z,16.96
2023-05-06T11:06:34.065Z,17.17
2023-05-06T11:12:03.296Z,17.14
2023-05-06T11:17:08.450Z,17.05
2023-05-06T11:22:40.858Z,17.03
2023-05-06T11:27:43.368Z,17.09
2023-05-06T11:32:46.854Z,17.15
2023-05-06T11:37:52.096Z,17.15
2023-05-06T11:42:54.669Z,17.32
2023-05-06T11:47:57.154Z,17.14
2023-05-06T11:52:59.842Z,17.00
2023-05-06T11:58:02.370Z,16.92
2023-05-06T12:03:05.056Z,16.85
2023-05-06T12:08:16.571Z,16.77
2023-05-06T12:13:29.823Z,16.73
2023-05-06T12:18:32.814Z,16.48
2023-05-06T12:23:35.495Z,16.30
2023-05-06T12:28:38.373Z,16.21
2023-05-06T12:33:46.341Z,16.10
2023-05-06T12:38:50.922Z,15.96
2023-05-06T12:43:53.492Z,15.85
2023-05-06T12:49:03.413Z,15.71
2023-05-06T12:54:28.890Z,15.62
2023-05-06T12:59:32.041Z,15.70
2023-05-06T13:04:34.614Z,15.80
2023-05-06T13:09:37.171Z,15.74
2023-05-06T13:14:40.440Z,15.61
2023-05-06T13:19:43.132Z,15.37
2023-05-06T13:24:46.099Z,15.26
2023-05-06T13:29:48.635Z,15.14
2023-05-06T13:34:51.180Z,15.10
2023-05-06T13:39:53.765Z,15.06
2023-05-06T13:44:56.414Z,14.90
2023-05-06T13:49:58.951Z,14.79
2023-05-06T13:55:01.606Z,14.76
2023-05-06T14:00:07.364Z,14.74
2023-05-06T14:05:10.419Z,14.70
2023-05-06T14:10:14.275Z,14.64
2023-05-06T14:15:16.872Z,14.63
2023-05-06T14:20:19.455Z,14.71
2023-05-06T14:25:26.781Z,14.66
2023-05-06T14:30:30.983Z,14.59
2023-05-06T14:35:33.555Z,14.50
2023-05-06T14:40:36.878Z,14.53
2023-05-06T14:45:39.501Z,14.50
2023-05-06T14:50:42.205Z,14.49
2023-05-06T14:55:45.486Z,14.53
2023-05-06T15:00:48.129Z,14.52
2023-05-06T15:05:51.049Z,14.47
2023-05-06T15:10:54.806Z,14.39
2023-05-06T15:15:57.330Z,14.29
2023-05-06T15:21:01.428Z,14.19
2023-05-06T15:26:04.309Z,14.09
2023-05-06T15:31:06.985Z,13.99
2023-05-06T15:36:09.728Z,13.85
2023-05-06T15:41:12.256Z,13.67
2023-05-06T15:46:14.841Z,13.53
2023-05-06T15:51:17.959Z,13.36
2023-05-06T15:56:21.318Z,13.27
2023-05-06T16:01:47.994Z,13.19
2023-05-06T16:06:46.536Z,13.10
2023-05-06T16:11:49.294Z,13.07
2023-05-06T16:16:51.975Z,13.04
2023-05-06T16:21:55.740Z,12.98
2023-05-06T16:26:58.230Z,12.94
2023-05-06T16:32:00.906Z,12.88
2023-05-06T16:37:03.603Z,12.79
2023-05-06T16:42:06.617Z,12.66
2023-05-06T16:47:09.200Z,12.57
2023-05-06T16:52:12.002Z,12.46
2023-05-06T16:57:14.530Z,12.35
2023-05-06T17:02:17.146Z,12.26
2023-05-06T17:07:19.757Z,12.18
2023-05-06T17:12:23.840Z,12.07
2023-05-06T17:17:28.679Z,11.99
2023-05-06T17:22:31.235Z,11.92
2023-05-06T17:27:33.761Z,11.85
2023-05-06T17:32:36.326Z,11.76
2023-05-06T17:37:39.224Z,11.67
2023-05-06T17:42:41.853Z,11.57
2023-05-06T17:47:44.449Z,11.48
2023-05-06T17:52:50.682Z,11.36
2023-05-06T17:57:53.424Z,11.23
2023-05-06T18:02:56.168Z,11.09
2023-05-06T18:07:58.808Z,10.96
2023-05-06T18:13:01.551Z,10.83
2023-05-06T18:18:04.354Z,10.67
2023-05-06T18:23:08.282Z,10.52
2023-05-06T18:28:11.098Z,10.37
2023-05-06T18:33:14.464Z,10.23
2023-05-06T18:38:17.122Z,10.12
2023-05-06T18:43:19.632Z,10.01
2023-05-06T18:48:22.450Z,9.91
2023-05-06T18:53:25.113Z,9.82
2023-05-06T18:58:27.649Z,9.72
2023-05-06T19:03:31.430Z,9.65
2023-05-06T19:08:34.054Z,9.59
2023-05-06T19:13:36.617Z,9.54
2023-05-06T19:18:41.472Z,9.48
2023-05-06T19:23:44.864Z,9.44
2023-05-06T19:28:47.453Z,9.39
2023-05-06T19:33:50.133Z,9.34
2023-05-06T19:38:52.698Z,9.26
2023-05-06T19:43:55.954Z,9.19
2023-05-06T19:49:00.587Z,9.11
2023-05-06T19:54:03.235Z,9.06
2023-05-06T19:59:05.780Z,9.00
2023-05-06T20:04:09.673Z,8.94
2023-05-06T20:09:12.360Z,8.89
2023-05-06T20:14:14.859Z,8.81
2023-05-06T20:19:18.565Z,8.73
2023-05-06T20:24:21.083Z,8.65
2023-05-06T20:29:23.651Z,8.57
2023-05-06T20:34:27.821Z,8.50
2023-05-06T20:39:30.724Z,8.44
2023-05-06T20:44:33.273Z,8.36
2023-05-06T20:49:36.002Z,8.25
2023-05-06T20:54:40.965Z,8.13
2023-05-06T20:59:44.002Z,8.00
2023-05-06T21:04:46.608Z,7.85
2023-05-06T21:09:49.146Z,7.73
2023-05-06T21:14:51.638Z,7.60
2023-05-06T21:19:54.222Z,7.49
2023-05-06T21:24:56.830Z,7.38
2023-05-06T21:29:59.412Z,7.31
2023-05-06T21:35:02.831Z,7.27
2023-05-06T21:40:05.731Z,7.20
2023-05-06T21:45:08.837Z,7.18
2023-05-06T21:50:12.238Z,7.17
2023-05-06T21:55:15.659Z,7.16
2023-05-06T22:00:18.542Z,7.14
2023-05-06T22:05:21.261Z,7.13
2023-05-06T22:10:23.844Z,7.08
2023-05-06T22:15:26.610Z,7.05
2023-05-06T22:20:30.630Z,7.01
2023-05-06T22:25:33.190Z,6.96
2023-05-06T22:30:35.730Z,6.90
2023-05-06T22:35:38.271Z,6.82
2023-05-06T22:40:40.761Z,6.73
2023-05-06T22:45:43.362Z,6.63
2023-05-06T22:50:46.687Z,6.49
2023-05-06T22:55:49.310Z,6.34
2023-05-06T23:00:51.903Z,6.18
2023-05-06T23:05:54.607Z,6.05
2023-05-06T23:10:57.169Z,5.93
2023-05-06T23:15:59.725Z,5.82
2023-05-06T23:21:02.597Z,5.73
2023-05-06T23:26:05.270Z,5.62
2023-05-06T23:31:08.271Z,5.50
2023-05-06T23:36:11.144Z,5.36
2023-05-06T23:41:13.679Z,5.18
2023-05-06T23:46:16.346Z,5.00
2023-05-06T23:51:19.071Z,4.84
2023-05-06T23:56:21.823Z,4.66
